Time;durP1;ratioP1;P1;durP2;ratioP2;P2;SDS_P1;SDS_P2;PMS_P1;PMS_P2;Temp;Humidity;BMP_temperature;BMP_pressure;BME280_temperature;BME280_humidity;BME280_pressure;Samples;Min_cycle;Max_cycle;Signal;HPM_P1;HPM_P2
2023/01/22 00:02:01;;;;;;;9.98;5.63;;;;;;;1.33;100.00;101964.25;5229175;28;20025;-75
2023/01/22 00:04:32;;;;;;;10.55;5.57;;;;;;;1.28;100.00;101966.75;5233672;28;20027;-76
2023/01/22 00:07:02;;;;;;;15.35;5.85;;;;;;;1.28;100.00;101965.88;5230794;28;20021;-74
2023/01/22 00:09:33;;;;;;;14.65;5.35;;;;;;;1.28;100.00;101958.16;5223564;28;20036;-75
2023/01/22 00:12:03;;;;;;;9.73;5.05;;;;;;;1.30;100.00;101954.78;5231943;28;20027;-75
2023/01/22 00:14:34;;;;;;;12.45;5.72;;;;;;;1.25;100.00;101958.94;5232273;28;20035;-74
2023/01/22 00:17:04;;;;;;;11.43;4.55;;;;;;;1.30;100.00;101959.03;5205832;28;20027;-75
2023/01/22 00:19:35;;;;;;;11.20;5.50;;;;;;;1.25;100.00;101946.06;5231196;28;20032;-75
2023/01/22 00:22:05;;;;;;;10.05;5.18;;;;;;;1.34;100.00;101954.00;5217380;28;20029;-75
2023/01/22 00:24:38;;;;;;;8.55;4.75;;;;;;;1.35;100.00;101953.19;5224780;28;20162;-75
2023/01/22 00:27:09;;;;;;;9.23;5.22;;;;;;;1.29;100.00;101958.19;5213284;28;20417;-75
2023/01/22 00:29:39;;;;;;;10.70;5.35;;;;;;;1.32;100.00;101953.09;5214561;28;20035;-76
2023/01/22 00:32:10;;;;;;;11.40;5.25;;;;;;;1.31;100.00;101958.22;5232607;28;20095;-75
2023/01/22 00:34:40;;;;;;;8.93;5.05;;;;;;;1.22;100.00;101953.72;5214291;28;20025;-75
2023/01/22 00:37:10;;;;;;;10.18;5.13;;;;;;;1.28;100.00;101953.88;5214256;28;20032;-75
2023/01/22 00:39:41;;;;;;;10.48;5.15;;;;;;;1.29;100.00;101949.59;5227301;28;20031;-74
2023/01/22 00:42:11;;;;;;;9.60;4.90;;;;;;;1.39;100.00;101952.41;5221656;28;20029;-74
2023/01/22 00:44:41;;;;;;;8.50;4.82;;;;;;;1.33;100.00;101947.13;5209923;28;20024;-73
2023/01/22 00:47:11;;;;;;;11.93;5.13;;;;;;;1.33;100.00;101952.28;5232412;28;20031;-73
2023/01/22 00:49:42;;;;;;;10.25;4.82;;;;;;;1.31;100.00;101947.91;5234743;28;20029;-74
2023/01/22 00:52:13;;;;;;;8.88;5.30;;;;;;;1.28;100.00;101943.56;5229234;28;20024;-73
2023/01/22 00:54:44;;;;;;;10.20;5.10;;;;;;;1.27;100.00;101944.38;5227822;28;20119;-74
2023/01/22 00:57:15;;;;;;;8.90;4.90;;;;;;;1.39;100.00;101941.25;5230462;28;20398;-74
2023/01/22 00:59:45;;;;;;;10.45;5.05;;;;;;;1.38;100.00;101949.81;5204133;28;20028;-75
2023/01/22 01:02:15;;;;;;;12.15;4.97;;;;;;;1.36;100.00;101933.44;5233795;28;20024;-74
2023/01/22 01:04:46;;;;;;;9.70;4.80;;;;;;;1.32;100.00;101941.91;5231869;28;20071;-73
2023/01/22 01:07:16;;;;;;;10.38;4.82;;;;;;;1.39;100.00;101941.25;5232582;28;20032;-75
2023/01/22 01:09:46;;;;;;;12.50;4.80;;;;;;;1.36;100.00;101942.03;5226065;28;20020;-75
2023/01/22 01:12:17;;;;;;;7.97;4.85;;;;;;;1.35;100.00;101944.56;5213370;28;20052;-75
2023/01/22 01:14:47;;;;;;;10.52;5.05;;;;;;;1.36;100.00;101936.88;5211670;28;20059;-73
2023/01/22 01:17:17;;;;;;;9.02;4.57;;;;;;;1.30;100.00;101941.03;5211598;28;20028;-74
2023/01/22 01:19:47;;;;;;;8.70;4.60;;;;;;;1.36;100.00;101930.84;5215313;28;20115;-74
2023/01/22 01:22:18;;;;;;;9.55;5.10;;;;;;;1.45;100.00;101931.06;5226695;28;20043;-75
2023/01/22 01:24:48;;;;;;;9.10;4.60;;;;;;;1.43;100.00;101933.59;5224794;28;20471;-75
2023/01/22 01:27:18;;;;;;;7.32;4.30;;;;;;;1.46;100.00;101922.50;5204297;28;20028;-75
2023/01/22 01:29:49;;;;;;;7.95;4.45;;;;;;;1.43;100.00;101933.59;5227410;28;20235;-75
2023/01/22 01:32:19;;;;;;;7.68;4.53;;;;;;;1.47;100.00;101934.56;5215236;28;20029;-76
2023/01/22 01:34:49;;;;;;;8.15;4.38;;;;;;;1.50;100.00;101930.34;5233893;28;20458;-76
2023/01/22 01:37:19;;;;;;;8.88;4.70;;;;;;;1.48;100.00;101934.59;5221266;28;20060;-75
2023/01/22 01:39:53;;;;;;;8.35;4.05;;;;;;;1.43;100.00;101925.88;5229597;28;20501;-75
2023/01/22 01:42:33;;;;;;;8.20;4.30;;;;;;;1.47;100.00;101930.28;5224485;28;20028;-75
2023/01/22 01:45:28;;;;;;;10.13;4.53;;;;;;;1.52;100.00;101922.63;5223475;28;20027;-75
2023/01/22 01:48:40;;;;;;;7.28;3.90;;;;;;;1.52;100.00;101933.81;5225270;28;20028;-75
2023/01/22 01:51:19;;;;;;;5.90;3.70;;;;;;;1.50;100.00;101935.50;5225662;28;20021;-75
2023/01/22 01:53:50;;;;;;;7.60;3.75;;;;;;;1.44;100.00;101926.75;5225315;28;20028;-74
2023/01/22 01:56:26;;;;;;;6.45;3.63;;;;;;;1.47;100.00;101929.41;5233650;28;20124;-73
2023/01/22 01:59:02;;;;;;;6.13;3.70;;;;;;;1.45;100.00;101934.53;5226480;28;20394;-73
2023/01/22 02:01:33;;;;;;;7.20;3.50;;;;;;;1.51;100.00;101926.94;5224289;28;20123;-74
2023/01/22 02:04:03;;;;;;;7.45;3.85;;;;;;;1.44;100.00;101925.03;5233468;28;20146;-74
2023/01/22 02:06:33;;;;;;;8.82;3.88;;;;;;;1.38;100.00;101934.38;5229681;28;20505;-75
2023/01/22 02:09:03;;;;;;;4.88;3.25;;;;;;;1.45;100.00;101931.97;5222160;28;20494;-75
2023/01/22 02:11:35;;;;;;;5.75;3.35;;;;;;;1.50;100.00;101929.47;5232323;28;20044;-76
2023/01/22 02:14:22;;;;;;;5.20;3.35;;;;;;;1.49;100.00;101922.56;5211975;28;20017;-74
2023/01/22 02:17:04;;;;;;;7.07;3.80;;;;;;;1.47;100.00;101925.13;5215993;28;20029;-74
2023/01/22 02:19:34;;;;;;;6.88;3.58;;;;;;;1.42;100.00;101916.41;5229372;28;20070;-75
2023/01/22 02:22:24;;;;;;;5.65;3.38;;;;;;;1.42;100.00;101926.72;5227314;28;20016;-75
2023/01/22 02:24:55;;;;;;;5.30;3.22;;;;;;;1.50;100.00;101930.34;5230702;28;20568;-76
2023/01/22 02:27:25;;;;;;;6.32;3.63;;;;;;;1.43;100.00;101917.31;5225988;28;20028;-75
2023/01/22 02:29:56;;;;;;;6.15;3.88;;;;;;;1.40;100.00;101920.66;5229675;28;20426;-76
2023/01/22 02:32:27;;;;;;;6.72;3.53;;;;;;;1.50;100.00;101925.19;5214827;28;20037;-76
2023/01/22 02:34:58;;;;;;;7.47;3.55;;;;;;;1.42;100.00;101931.00;5225113;28;20033;-75
2023/01/22 02:37:29;;;;;;;5.43;3.38;;;;;;;1.38;100.00;101926.63;5222487;28;20032;-76
2023/01/22 02:39:59;;;;;;;5.90;3.70;;;;;;;1.37;100.00;101933.47;5226602;28;20385;-74
2023/01/22 02:42:29;;;;;;;5.97;3.70;;;;;;;1.45;100.00;101936.22;5210695;28;20044;-75
2023/01/22 02:45:00;;;;;;;6.47;3.75;;;;;;;1.50;100.00;101930.34;5224164;28;20112;-75
2023/01/22 02:47:30;;;;;;;7.28;3.70;;;;;;;1.46;100.00;101922.50;5221057;28;20032;-73
2023/01/22 02:50:01;;;;;;;6.15;3.83;;;;;;;1.49;100.00;101925.16;5226988;28;20047;-76
2023/01/22 02:52:31;;;;;;;5.13;3.35;;;;;;;1.38;100.00;101930.06;5231342;28;20043;-74
2023/01/22 02:55:02;;;;;;;6.15;3.03;;;;;;;1.40;100.00;101923.25;5221681;28;20049;-74
2023/01/22 02:57:32;;;;;;;5.40;2.97;;;;;;;1.37;100.00;101932.63;5226816;28;20190;-73
2023/01/22 03:00:03;;;;;;;7.00;3.60;;;;;;;1.48;100.00;101926.00;5224865;28;20124;-74
2023/01/22 03:02:33;;;;;;;5.18;3.10;;;;;;;1.47;100.00;101929.41;5215029;28;20501;-74
2023/01/22 03:05:04;;;;;;;4.93;3.17;;;;;;;1.41;100.00;101934.44;5203201;28;20017;-74
2023/01/22 03:07:46;;;;;;;5.65;3.40;;;;;;;1.50;100.00;101920.03;5228465;28;20032;-74
2023/01/22 03:10:18;;;;;;;5.05;3.13;;;;;;;1.53;100.00;101924.38;5248590;22;20056;-72
2023/01/22 03:21:19;;;;;;;4.82;3.03;;;;;;;1.51;100.00;101924.38;5232442;28;20048;-72
2023/01/22 03:23:53;;;;;;;4.90;3.08;;;;;;;1.49;100.00;101923.47;5221287;28;20036;-72
2023/01/22 03:26:24;;;;;;;5.32;3.05;;;;;;;1.43;100.00;101933.59;5219846;28;20035;-72
2023/01/22 03:28:54;;;;;;;4.50;2.95;;;;;;;1.45;100.00;101937.13;5227778;28;20029;-72
2023/01/22 03:31:24;;;;;;;4.47;2.83;;;;;;;1.51;100.00;101931.19;5209433;28;20021;-72
2023/01/22 03:33:55;;;;;;;5.15;3.33;;;;;;;1.48;100.00;101934.59;5227891;28;20108;-72
2023/01/22 03:36:25;;;;;;;5.63;3.10;;;;;;;1.46;100.00;101935.38;5202991;28;20325;-72
2023/01/22 03:38:55;;;;;;;5.65;3.40;;;;;;;1.56;100.00;101935.63;5228430;28;20040;-72
2023/01/22 03:41:25;;;;;;;5.80;3.10;;;;;;;1.48;100.00;101942.31;5230022;28;20036;-73
2023/01/22 03:44:00;;;;;;;4.43;2.70;;;;;;;1.43;100.00;101938.75;5224346;28;20041;-72
2023/01/22 03:46:31;;;;;;;5.75;3.22;;;;;;;1.44;100.00;101943.06;5230048;28;20043;-72
2023/01/22 03:49:01;;;;;;;4.90;2.92;;;;;;;1.42;100.00;101942.16;5220535;28;20020;-72
2023/01/22 03:51:32;;;;;;;5.75;3.35;;;;;;;1.47;100.00;101940.59;5229817;28;20064;-73
2023/01/22 03:54:03;;;;;;;5.32;3.33;;;;;;;1.54;100.00;101947.59;5209391;28;20394;-73
2023/01/22 03:56:33;;;;;;;5.82;3.00;;;;;;;1.51;100.00;101949.22;5216157;28;20037;-72
2023/01/22 03:59:03;;;;;;;5.35;3.10;;;;;;;1.62;100.00;101951.25;5229544;28;20055;-72
2023/01/22 04:01:33;;;;;;;5.13;2.85;;;;;;;1.47;100.00;101945.75;5228611;28;20028;-72
2023/01/22 04:04:04;;;;;;;5.68;3.28;;;;;;;1.56;100.00;101943.34;5229792;28;20024;-73
2023/01/22 04:06:34;;;;;;;4.22;2.97;;;;;;;1.44;100.00;101953.38;5229312;28;20108;-72
2023/01/22 04:09:04;;;;;;;4.65;2.67;;;;;;;1.52;100.00;101943.25;5216032;28;20031;-72
2023/01/22 04:11:35;;;;;;;4.63;2.97;;;;;;;1.56;100.00;101950.22;5231273;28;20055;-72
2023/01/22 04:14:05;;;;;;;4.30;2.80;;;;;;;1.56;100.00;101950.22;5230877;28;20050;-72
2023/01/22 04:16:35;;;;;;;5.22;2.95;;;;;;;1.48;100.00;101941.44;5230861;28;20054;-72
2023/01/22 04:19:06;;;;;;;4.68;3.00;;;;;;;1.48;100.00;101947.47;5225465;28;20044;-72
2023/01/22 04:21:36;;;;;;;5.50;3.10;;;;;;;1.55;100.00;101943.34;5226545;28;20094;-72
2023/01/22 04:24:06;;;;;;;5.05;3.10;;;;;;;1.40;100.00;101949.00;5230947;28;20025;-72
2023/01/22 04:26:36;;;;;;;6.00;3.35;;;;;;;1.44;100.00;101937.91;5227934;28;20546;-72
2023/01/22 04:29:08;;;;;;;5.45;3.17;;;;;;;1.47;100.00;101940.59;5232841;28;20280;-72
2023/01/22 04:31:38;;;;;;;5.18;3.15;;;;;;;1.49;100.00;101943.19;5232698;28;20512;-72
2023/01/22 04:34:08;;;;;;;6.03;3.03;;;;;;;1.49;100.00;101938.91;5226921;28;20029;-72
2023/01/22 04:36:39;;;;;;;5.30;2.95;;;;;;;1.41;100.00;101940.44;5231416;28;20510;-72
2023/01/22 04:39:09;;;;;;;4.75;3.10;;;;;;;1.47;100.00;101939.72;5225506;28;20041;-72
2023/01/22 04:41:39;;;;;;;7.65;3.15;;;;;;;1.48;100.00;101941.44;5228152;28;20337;-72
2023/01/22 04:44:10;;;;;;;4.97;2.88;;;;;;;1.51;100.00;101944.97;5229691;28;20052;-72
2023/01/22 04:46:40;;;;;;;4.80;3.05;;;;;;;1.52;100.00;101944.13;5230625;28;20036;-73
2023/01/22 04:49:10;;;;;;;4.30;2.70;;;;;;;1.46;100.00;101937.97;5232016;28;20134;-72
2023/01/22 04:51:40;;;;;;;4.50;3.15;;;;;;;1.48;100.00;101937.19;5230270;28;20110;-72
2023/01/22 04:54:11;;;;;;;4.10;2.80;;;;;;;1.53;100.00;101940.72;5229867;28;20021;-72
2023/01/22 04:56:41;;;;;;;4.55;2.78;;;;;;;1.50;100.00;101939.78;5224079;28;20130;-72
2023/01/22 04:59:11;;;;;;;5.22;2.78;;;;;;;1.46;100.00;101944.00;5233051;28;20041;-72
2023/01/22 05:01:43;;;;;;;4.75;3.15;;;;;;;1.51;100.00;101944.09;5229953;28;20150;-72
2023/01/22 05:04:14;;;;;;;4.90;3.00;;;;;;;1.46;100.00;101951.72;5230604;28;20336;-72
2023/01/22 05:06:44;;;;;;;4.10;2.80;;;;;;;1.43;100.00;101945.63;5225850;28;20188;-72
2023/01/22 05:09:14;;;;;;;4.65;2.88;;;;;;;1.39;100.00;101957.56;5233509;28;20040;-72
2023/01/22 05:11:45;;;;;;;4.68;2.72;;;;;;;1.50;100.00;101947.50;5212315;28;20252;-72
2023/01/22 05:14:15;;;;;;;5.38;3.50;;;;;;;1.48;100.00;101957.78;5225144;28;20079;-72
2023/01/22 05:16:45;;;;;;;5.72;3.10;;;;;;;1.40;100.00;101953.28;5223160;28;20095;-73
2023/01/22 05:19:16;;;;;;;4.63;2.92;;;;;;;1.38;100.00;101950.66;5233252;28;20032;-72
2023/01/22 05:21:46;;;;;;;4.53;3.22;;;;;;;1.41;100.00;101958.47;5229125;28;20067;-72
2023/01/22 05:24:17;;;;;;;3.90;2.63;;;;;;;1.37;100.00;101971.25;5221482;28;20033;-72
2023/01/22 05:26:47;;;;;;;4.65;3.13;;;;;;;1.41;100.00;101967.91;5223643;28;20020;-71
2023/01/22 05:29:18;;;;;;;4.65;3.05;;;;;;;1.35;100.00;101976.34;5229465;28;20104;-72
2023/01/22 05:31:48;;;;;;;4.53;2.75;;;;;;;1.35;100.00;101971.19;5225581;28;20025;-72
2023/01/22 05:34:19;;;;;;;4.82;3.17;;;;;;;1.32;100.00;101981.44;5216206;28;20513;-72
2023/01/22 05:36:49;;;;;;;4.70;2.72;;;;;;;1.42;100.00;101982.53;5212320;28;20077;-72
2023/01/22 05:39:19;;;;;;;4.35;3.20;;;;;;;1.35;100.00;101984.06;5226127;28;20024;-72
2023/01/22 05:41:50;;;;;;;4.85;2.88;;;;;;;1.30;100.00;101988.25;5225791;28;20040;-72
2023/01/22 05:44:21;;;;;;;5.18;3.30;;;;;;;1.32;100.00;101981.44;5225060;28;20481;-72
2023/01/22 05:46:51;;;;;;;4.32;3.03;;;;;;;1.40;100.00;101979.03;5210648;28;20316;-72
2023/01/22 05:49:21;;;;;;;5.07;3.17;;;;;;;1.38;100.00;101985.88;5221785;28;20036;-72
2023/01/22 05:51:52;;;;;;;5.57;3.13;;;;;;;1.34;100.00;101979.75;5219657;28;20091;-72
2023/01/22 05:54:22;;;;;;;5.05;3.28;;;;;;;1.30;100.00;101977.06;5218163;28;20024;-71
2023/01/22 05:56:52;;;;;;;4.80;3.00;;;;;;;1.38;100.00;101984.16;5226001;28;20094;-72
2023/01/22 05:59:23;;;;;;;4.25;2.92;;;;;;;1.42;100.00;101992.81;5225294;28;20055;-72
2023/01/22 06:01:53;;;;;;;4.03;2.60;;;;;;;1.43;100.00;101982.53;5219141;28;20029;-73
2023/01/22 06:04:23;;;;;;;6.15;3.17;;;;;;;1.47;100.00;101974.06;5227624;28;20024;-72
2023/01/22 06:06:54;;;;;;;4.35;2.80;;;;;;;1.34;100.00;101984.03;5219900;28;20516;-72
2023/01/22 06:09:24;;;;;;;3.90;2.50;;;;;;;1.38;100.00;101984.16;5228300;28;20105;-72
2023/01/22 06:11:54;;;;;;;4.32;2.80;;;;;;;1.46;100.00;101992.94;5221003;28;20471;-72
2023/01/22 06:14:25;;;;;;;4.07;2.60;;;;;;;1.33;100.00;101998.63;5225904;28;20082;-72
2023/01/22 06:16:55;;;;;;;3.97;2.70;;;;;;;1.35;100.00;101996.94;5223208;28;20150;-73
2023/01/22 06:19:25;;;;;;;3.47;2.25;;;;;;;1.40;100.00;102002.22;5209644;28;20037;-72
2023/01/22 06:21:56;;;;;;;3.40;2.20;;;;;;;1.40;100.00;102010.81;5222077;28;20112;-72
2023/01/22 06:24:26;;;;;;;2.63;1.73;;;;;;;1.37;100.00;102003.00;5225866;28;20133;-71
2023/01/22 06:26:56;;;;;;;2.90;1.90;;;;;;;1.40;100.00;102000.50;5217860;28;20909;-72
2023/01/22 06:29:26;;;;;;;2.55;1.80;;;;;;;1.43;100.00;102005.72;5222048;28;20400;-72
2023/01/22 06:31:57;;;;;;;2.88;1.75;;;;;;;1.38;100.00;102009.03;5217403;28;20032;-72
2023/01/22 06:34:27;;;;;;;2.40;1.58;;;;;;;1.47;100.00;102010.13;5223795;28;20032;-72
2023/01/22 06:36:57;;;;;;;2.40;1.50;;;;;;;1.40;100.00;102005.66;5224888;28;20454;-72
2023/01/22 06:39:28;;;;;;;2.17;1.25;;;;;;;1.38;100.00;102006.47;5210465;28;20120;-73
2023/01/22 06:41:58;;;;;;;2.17;1.35;;;;;;;1.45;100.00;102011.81;5217862;28;20402;-72
2023/01/22 06:44:28;;;;;;;3.35;1.45;;;;;;;1.44;100.00;102012.59;5182500;28;20037;-72
2023/01/22 06:46:59;;;;;;;2.00;1.33;;;;;;;1.40;100.00;102008.22;5219384;28;20032;-72
2023/01/22 06:49:29;;;;;;;2.08;1.35;;;;;;;1.47;100.00;102015.28;5204348;28;20043;-72
2023/01/22 06:51:59;;;;;;;2.25;1.30;;;;;;;1.42;100.00;102018.56;5223593;28;20163;-72
2023/01/22 06:54:30;;;;;;;1.98;1.20;;;;;;;1.39;100.00;102014.22;5221532;28;20040;-72
2023/01/22 06:57:01;;;;;;;1.70;1.20;;;;;;;1.37;100.00;102015.88;5226660;28;20032;-72
2023/01/22 06:59:31;;;;;;;1.67;1.00;;;;;;;1.46;100.00;102021.28;5228430;28;20032;-73
2023/01/22 07:02:01;;;;;;;1.42;1.13;;;;;;;1.42;100.00;102019.44;5228219;28;20458;-73
2023/01/22 07:04:31;;;;;;;1.45;0.98;;;;;;;1.53;100.00;102028.28;5212716;28;20036;-72
2023/01/22 07:07:02;;;;;;;2.03;1.20;;;;;;;1.52;100.00;102026.56;5221701;28;20021;-72
2023/01/22 07:09:32;;;;;;;2.10;1.10;;;;;;;1.61;100.00;102044.78;5213352;28;20037;-72
2023/01/22 07:12:02;;;;;;;1.45;0.98;;;;;;;1.47;100.00;102035.88;5224424;28;20103;-73
2023/01/22 07:14:33;;;;;;;1.10;0.85;;;;;;;1.44;100.00;102038.34;5224957;28;20040;-72
2023/01/22 07:17:03;;;;;;;1.50;0.90;;;;;;;1.43;100.00;102040.91;5225572;28;20025;-72
2023/01/22 07:19:34;;;;;;;1.25;0.90;;;;;;;1.41;100.00;102051.16;5215986;28;20505;-73
2023/01/22 07:22:04;;;;;;;1.23;0.98;;;;;;;1.44;100.00;102051.25;5216337;28;20040;-72
2023/01/22 07:24:34;;;;;;;1.35;0.98;;;;;;;1.46;100.00;102052.19;5214283;28;20207;-72
2023/01/22 07:27:04;;;;;;;1.77;0.95;;;;;;;1.44;100.00;102058.97;5210884;28;20498;-72
2023/01/22 07:29:35;;;;;;;1.63;1.05;;;;;;;1.35;100.00;102069.06;5223487;28;20509;-73
2023/01/22 07:32:05;;;;;;;2.15;1.33;;;;;;;1.30;100.00;102072.34;5224867;28;20043;-73
2023/01/22 07:34:36;;;;;;;1.35;1.00;;;;;;;1.33;100.00;102064.69;5219685;28;20113;-72
2023/01/22 07:37:06;;;;;;;1.73;1.10;;;;;;;1.40;100.00;102067.44;5220879;28;20117;-72
2023/01/22 07:39:36;;;;;;;1.73;1.30;;;;;;;1.48;100.00;102067.66;5212011;28;20051;-73
2023/01/22 07:42:07;;;;;;;1.80;1.10;;;;;;;1.38;100.00;102070.84;5228712;28;20276;-73
2023/01/22 07:44:39;;;;;;;2.53;1.20;;;;;;;1.49;100.00;102077.13;5217186;28;20029;-72
2023/01/22 07:47:09;;;;;;;1.15;0.85;;;;;;;1.51;100.00;102071.19;5223022;28;20036;-72
2023/01/22 07:49:40;;;;;;;1.17;0.88;;;;;;;1.51;100.00;102076.31;5216340;28;20284;-72
2023/01/22 07:52:11;;;;;;;1.38;0.90;;;;;;;1.51;100.00;102078.91;5222476;28;20167;-72
2023/01/22 07:54:41;;;;;;;1.85;1.10;;;;;;;1.58;100.00;102067.91;5207270;28;20494;-72
2023/01/22 07:57:14;;;;;;;1.52;0.98;;;;;;;1.60;100.00;102066.22;5222819;28;20094;-72
2023/01/22 07:59:44;;;;;;;1.10;0.80;;;;;;;1.61;100.00;102075.69;5213106;28;20625;-72
2023/01/22 08:02:15;;;;;;;1.98;1.20;;;;;;;1.53;100.00;102079.81;5220476;28;20120;-73
2023/01/22 08:04:45;;;;;;;3.35;1.40;;;;;;;1.63;100.00;102079.22;5197056;28;20294;-72
2023/01/22 08:07:19;;;;;;;3.63;2.13;;;;;;;1.68;100.00;102080.19;5222726;28;20138;-72
2023/01/22 08:09:49;;;;;;;2.40;1.40;;;;;;;1.63;100.00;102075.75;5213321;28;20044;-72
2023/01/22 08:12:19;;;;;;;1.92;1.30;;;;;;;1.72;100.00;102074.25;5221225;28;20036;-72
2023/01/22 08:14:49;;;;;;;3.70;1.33;;;;;;;1.72;100.00;102073.41;5223643;28;20044;-71
2023/01/22 08:17:20;;;;;;;2.70;1.50;;;;;;;1.74;100.00;102085.47;5224875;28;20024;-73
2023/01/22 08:19:50;;;;;;;2.30;1.40;;;;;;;1.73;100.00;102083.75;5218751;28;20036;-71
2023/01/22 08:22:20;;;;;;;3.47;1.52;;;;;;;1.65;100.00;102080.13;5213079;28;20051;-71
2023/01/22 08:24:52;;;;;;;2.70;1.38;;;;;;;1.75;100.00;102083.78;5221115;28;20017;-71
2023/01/22 08:27:23;;;;;;;2.15;1.60;;;;;;;1.65;100.00;102086.97;5208522;28;20033;-72
2023/01/22 08:29:54;;;;;;;2.80;1.60;;;;;;;1.75;100.00;102092.38;5231739;28;20031;-72
2023/01/22 08:32:24;;;;;;;3.20;2.08;;;;;;;1.76;100.00;102088.97;5232937;28;20295;-72
2023/01/22 08:34:54;;;;;;;3.95;2.10;;;;;;;1.69;100.00;102092.25;5224831;28;20033;-72
2023/01/22 08:37:25;;;;;;;3.00;2.17;;;;;;;1.71;100.00;102090.56;5202619;28;20082;-72
2023/01/22 08:39:55;;;;;;;4.03;2.17;;;;;;;1.72;100.00;102097.47;5214539;28;20094;-72
2023/01/22 08:42:25;;;;;;;3.80;2.13;;;;;;;1.81;100.00;102098.53;5226858;28;20482;-73
2023/01/22 08:44:55;;;;;;;3.55;2.20;;;;;;;1.78;100.00;102107.91;5225885;28;20627;-72
2023/01/22 08:47:26;;;;;;;2.95;1.90;;;;;;;1.78;100.00;102107.91;5221648;28;20021;-71
2023/01/22 08:49:56;;;;;;;2.85;2.00;;;;;;;1.84;100.00;102105.50;5215760;28;20028;-73
2023/01/22 08:52:27;;;;;;;2.67;1.80;;;;;;;1.87;100.00;102114.19;5208049;28;20024;-73
2023/01/22 08:54:57;;;;;;;3.15;2.00;;;;;;;2.01;100.00;102117.06;5219583;28;20396;-73
2023/01/22 08:57:27;;;;;;;2.78;2.05;;;;;;;1.95;100.00;102117.78;5227768;28;20056;-72
2023/01/22 08:59:57;;;;;;;3.15;2.03;;;;;;;1.87;100.00;102123.59;5224265;28;20109;-72
2023/01/22 09:02:28;;;;;;;3.00;2.05;;;;;;;1.79;100.00;102132.88;5227331;28;20029;-72
2023/01/22 09:04:58;;;;;;;3.17;2.15;;;;;;;1.94;100.00;102113.47;5231650;28;20410;-73
2023/01/22 09:07:28;;;;;;;2.90;2.03;;;;;;;1.84;100.00;102128.69;5230234;28;20040;-73
2023/01/22 09:09:59;;;;;;;2.80;1.80;;;;;;;1.84;100.00;102131.25;5208889;28;20502;-73
2023/01/22 09:12:29;;;;;;;3.75;2.28;;;;;;;1.79;100.00;102130.28;5243286;22;20102;-75
2023/01/22 09:14:59;;;;;;;4.15;2.80;;;;;;;1.74;100.00;102129.28;5220045;28;20074;-74
2023/01/22 09:17:29;;;;;;;3.55;2.60;;;;;;;1.85;100.00;102125.28;5212844;28;20219;-75
2023/01/22 09:20:00;;;;;;;3.97;2.25;;;;;;;1.99;100.00;102123.91;5211894;28;20079;-76
2023/01/22 09:22:30;;;;;;;3.55;2.33;;;;;;;2.10;100.00;102132.72;5221144;28;20430;-75
2023/01/22 09:25:00;;;;;;;3.45;2.28;;;;;;;2.20;100.00;102126.97;5221668;28;20020;-74
2023/01/22 09:27:31;;;;;;;4.47;2.50;;;;;;;2.26;100.00;102133.16;5195180;28;20052;-74
2023/01/22 09:30:01;;;;;;;5.90;2.50;;;;;;;2.08;100.00;102134.41;5195392;28;20490;-74
2023/01/22 09:32:31;;;;;;;3.83;2.55;;;;;;;2.04;100.00;102137.75;5213980;28;20043;-75
2023/01/22 09:35:02;;;;;;;4.75;2.53;;;;;;;2.02;100.00;102142.00;5213782;28;20021;-75
2023/01/22 09:37:33;;;;;;;4.63;2.80;;;;;;;1.84;100.00;102149.31;5207386;28;20525;-75
2023/01/22 09:40:04;;;;;;;5.32;3.45;;;;;;;1.84;100.00;102139.00;5216745;28;20022;-75
2023/01/22 09:42:39;;;;;;;6.15;3.80;;;;;;;2.08;100.00;102144.72;5220222;28;20040;-75
2023/01/22 09:45:12;;;;;;;8.65;4.53;;;;;;;2.08;100.00;102144.72;5185425;28;20476;-74
2023/01/22 09:47:48;;;;;;;4.72;3.17;;;;;;;2.12;100.00;102151.69;5211530;28;20045;-75
2023/01/22 09:50:24;;;;;;;4.75;3.40;;;;;;;2.09;100.00;102161.94;5216984;28;20560;-74
2023/01/22 09:52:59;;;;;;;5.97;3.60;;;;;;;2.10;100.00;102161.09;5213796;28;20049;-75
2023/01/22 09:55:33;;;;;;;;;;;;;;;1.87;100.00;102159.69;5207567;28;20650;-74
2023/01/22 09:58:08;;;;;;;6.30;3.75;;;;;;;2.07;100.00;102163.59;5193852;28;19917;-73
2023/01/22 10:00:48;;;;;;;7.65;3.95;;;;;;;1.94;100.00;102166.72;5195900;28;20033;-71
2023/01/22 10:03:40;;;;;;;6.32;4.07;;;;;;;1.95;100.00;102173.63;5219327;28;20021;-74
2023/01/22 10:06:13;;;;;;;5.75;4.03;;;;;;;1.95;100.00;102159.03;5193086;28;20433;-74
2023/01/22 10:08:43;;;;;;;7.43;4.45;;;;;;;2.12;100.00;102172.31;5211066;28;20109;-74
2023/01/22 10:11:14;;;;;;;6.55;3.70;;;;;;;2.13;100.00;102179.25;5193606;28;20029;-74
2023/01/22 10:13:45;;;;;;;9.13;4.10;;;;;;;2.06;100.00;102177.34;5215156;28;20064;-74
2023/01/22 10:16:16;;;;;;;6.30;4.20;;;;;;;1.91;100.00;102171.81;5219041;28;20029;-74
2023/01/22 10:18:54;;;;;;;7.10;4.20;;;;;;;1.90;100.00;102177.78;5209991;28;20032;-74
2023/01/22 10:21:31;;;;;;;8.07;4.50;;;;;;;1.92;100.00;102179.59;5204817;28;20021;-74
2023/01/22 10:24:01;;;;;;;8.38;4.68;;;;;;;1.89;100.00;102174.38;5218569;28;20482;-75
2023/01/22 10:26:41;;;;;;;6.80;4.43;;;;;;;1.79;100.00;102182.69;5219162;28;20048;-75
2023/01/22 10:29:19;;;;;;;5.88;4.10;;;;;;;1.84;100.00;102180.22;5204877;28;20037;-72
2023/01/22 10:31:58;;;;;;;7.72;4.97;;;;;;;2.03;100.00;102182.44;5203483;28;20512;-75
2023/01/22 10:34:35;;;;;;;7.38;4.60;;;;;;;1.83;100.00;102176.75;5196857;28;20044;-75
2023/01/22 10:37:16;;;;;;;8.77;5.28;;;;;;;1.93;100.00;102183.03;5215251;28;20043;-74
2023/01/22 10:39:49;;;;;;;8.95;5.40;;;;;;;1.94;100.00;102182.19;5185177;28;20029;-73
2023/01/22 10:42:23;;;;;;;9.13;5.50;;;;;;;2.09;100.00;102183.44;5215445;28;20402;-74
2023/01/22 10:44:56;;;;;;;7.68;5.43;;;;;;;1.88;100.00;102176.88;5216517;28;20033;-74
2023/01/22 10:47:27;;;;;;;8.55;5.63;;;;;;;1.86;100.00;102176.84;5216561;28;20083;-74
2023/01/22 10:50:11;;;;;;;10.75;6.05;;;;;;;1.84;100.00;102180.22;5214835;28;20525;-73
2023/01/22 10:52:54;;;;;;;12.93;6.32;;;;;;;1.77;100.00;102183.47;5210462;28;20032;-73
2023/01/22 10:55:29;;;;;;;9.38;5.60;;;;;;;1.92;100.00;102173.53;5211851;28;20483;-74
2023/01/22 10:58:02;;;;;;;9.10;5.80;;;;;;;1.75;100.00;102182.56;5212927;28;20500;-74
2023/01/22 11:00:36;;;;;;;8.88;6.03;;;;;;;1.80;100.00;102175.84;5180129;28;20060;-73
2023/01/22 11:03:21;;;;;;;10.30;6.30;;;;;;;1.71;100.00;102177.31;5210881;28;20083;-74
2023/01/22 11:05:57;;;;;;;9.18;6.15;;;;;;;1.89;100.00;102181.22;5210218;28;20055;-74
2023/01/22 11:08:35;;;;;;;11.02;6.45;;;;;;;1.82;100.00;102182.75;5184166;28;20570;-76
2023/01/22 11:11:09;;;;;;;11.55;7.22;;;;;;;1.70;100.00;102189.31;5186883;28;20458;-74
2023/01/22 11:13:55;;;;;;;47.17;23.10;;;;;;;1.74;100.00;102180.81;5198140;28;20040;-74
2023/01/22 11:16:31;;;;;;;15.77;10.02;;;;;;;1.71;100.00;102178.16;5212092;28;20148;-73
2023/01/22 11:19:11;;;;;;;17.85;10.85;;;;;;;1.63;100.00;102182.28;5188042;28;20046;-74
2023/01/22 11:21:46;;;;;;;13.10;8.32;;;;;;;1.76;100.00;102186.88;5206105;28;20491;-75
2023/01/22 11:24:25;;;;;;;18.15;11.43;;;;;;;1.82;100.00;102187.06;5196799;28;20044;-74
2023/01/22 11:27:11;;;;;;;12.82;7.43;;;;;;;1.64;100.00;102176.28;5212053;28;20063;-75
2023/01/22 11:29:57;;;;;;;15.20;9.13;;;;;;;1.71;100.00;102173.00;5198483;28;20044;-73
2023/01/22 11:32:38;;;;;;;;;;;;;;;1.70;100.00;102181.59;5208368;28;20048;-75
2023/01/22 11:35:22;;;;;;;14.32;8.27;;;;;;;1.58;100.00;102181.25;5215578;28;19948;-74
2023/01/22 11:38:20;;;;;;;14.63;8.13;;;;;;;1.54;100.00;102179.44;5203415;28;20102;-73
2023/01/22 11:41:16;;;;;;;22.83;12.40;;;;;;;1.58;100.00;102178.69;5216330;28;20027;-74
2023/01/22 11:44:11;;;;;;;14.02;8.65;;;;;;;1.57;100.00;102176.09;5213121;28;20441;-74
2023/01/22 11:47:13;;;;;;;20.40;10.43;;;;;;;1.58;100.00;102175.25;5200339;28;20116;-74
2023/01/22 11:49:56;;;;;;;38.78;20.48;;;;;;;1.66;100.00;102169.47;5216335;28;20079;-74
2023/01/22 11:52:48;;;;;;;27.00;13.88;;;;;;;1.66;100.00;102169.47;5193063;28;20119;-75
2023/01/22 11:55:34;;;;;;;18.67;12.27;;;;;;;1.63;100.00;102165.91;5202506;28;20056;-75
2023/01/22 11:58:20;;;;;;;15.20;9.68;;;;;;;1.68;100.00;102166.91;5191749;28;20024;-74